sensor_id;sensor_type;location;lat;lon;timestamp;P1;durP1;ratioP1;P2;durP2;ratioP2
59390;SDS011;53405;57.012;40.984;2022-08-01T00:02:20;5.10;;;2.40;;
59390;SDS011;53405;57.012;40.984;2022-08-01T00:05:08;5.95;;;2.33;;
59390;SDS011;53405;57.012;40.984;2022-08-01T00:07:56;4.35;;;2.38;;
59390;SDS011;53405;57.012;40.984;2022-08-01T00:10:43;6.03;;;2.50;;
59390;SDS011;53405;57.012;40.984;2022-08-01T00:13:31;5.65;;;2.20;;
59390;SDS011;53405;57.012;40.984;2022-08-01T00:16:18;4.55;;;2.33;;
59390;SDS011;53405;57.012;40.984;2022-08-01T00:19:09;4.35;;;2.15;;
59390;SDS011;53405;57.012;40.984;2022-08-01T00:21:57;5.00;;;2.10;;
59390;SDS011;53405;57.012;40.984;2022-08-01T00:24:44;7.78;;;2.08;;
59390;SDS011;53405;57.012;40.984;2022-08-01T00:27:32;4.30;;;2.22;;
59390;SDS011;53405;57.012;40.984;2022-08-01T00:30:19;3.28;;;1.88;;
59390;SDS011;53405;57.012;40.984;2022-08-01T00:33:07;5.55;;;1.95;;
59390;SDS011;53405;57.012;40.984;2022-08-01T00:35:54;3.33;;;1.70;;
59390;SDS011;53405;57.012;40.984;2022-08-01T00:38:42;4.00;;;1.73;;
59390;SDS011;53405;57.012;40.984;2022-08-01T00:41:30;4.68;;;2.05;;
59390;SDS011;53405;57.012;40.984;2022-08-01T00:44:17;3.33;;;1.88;;
59390;SDS011;53405;57.012;40.984;2022-08-01T00:47:05;4.78;;;1.80;;
59390;SDS011;53405;57.012;40.984;2022-08-01T00:49:54;4.07;;;1.95;;
59390;SDS011;53405;57.012;40.984;2022-08-01T00:52:41;4.38;;;1.63;;
59390;SDS011;53405;57.012;40.984;2022-08-01T00:55:30;3.95;;;1.83;;
59390;SDS011;53405;57.012;40.984;2022-08-01T00:58:19;5.05;;;1.92;;
59390;SDS011;53405;57.012;40.984;2022-08-01T01:01:07;4.72;;;1.90;;
59390;SDS011;53405;57.012;40.984;2022-08-01T01:03:54;4.82;;;2.35;;
59390;SDS011;53405;57.012;40.984;2022-08-01T01:10:00;6.07;;;2.40;;
59390;SDS011;53405;57.012;40.984;2022-08-01T01:13:02;4.43;;;2.33;;
59390;SDS011;53405;57.012;40.984;2022-08-01T01:16:00;8.05;;;2.50;;
59390;SDS011;53405;57.012;40.984;2022-08-01T01:18:53;7.47;;;2.40;;
59390;SDS011;53405;57.012;40.984;2022-08-01T01:24:45;7.85;;;2.58;;
59390;SDS011;53405;57.012;40.984;2022-08-01T01:31:28;6.45;;;2.65;;
59390;SDS011;53405;57.012;40.984;2022-08-01T01:34:20;7.43;;;2.88;;
59390;SDS011;53405;57.012;40.984;2022-08-01T01:37:12;7.20;;;2.63;;
59390;SDS011;53405;57.012;40.984;2022-08-01T01:40:03;8.10;;;3.00;;
59390;SDS011;53405;57.012;40.984;2022-08-01T01:42:52;5.63;;;2.40;;
59390;SDS011;53405;57.012;40.984;2022-08-01T01:45:44;7.05;;;2.58;;
59390;SDS011;53405;57.012;40.984;2022-08-01T01:48:34;5.70;;;3.22;;
59390;SDS011;53405;57.012;40.984;2022-08-01T01:51:24;5.85;;;2.60;;
59390;SDS011;53405;57.012;40.984;2022-08-01T01:54:14;6.75;;;2.72;;
59390;SDS011;53405;57.012;40.984;2022-08-01T01:57:02;7.70;;;2.85;;
59390;SDS011;53405;57.012;40.984;2022-08-01T01:59:51;4.70;;;2.30;;
59390;SDS011;53405;57.012;40.984;2022-08-01T02:02:41;7.63;;;2.78;;
59390;SDS011;53405;57.012;40.984;2022-08-01T02:05:31;9.77;;;2.47;;
59390;SDS011;53405;57.012;40.984;2022-08-01T02:08:21;5.78;;;2.40;;
59390;SDS011;53405;57.012;40.984;2022-08-01T02:11:10;4.60;;;2.42;;
59390;SDS011;53405;57.012;40.984;2022-08-01T02:14:07;6.13;;;2.40;;
59390;SDS011;53405;57.012;40.984;2022-08-01T02:16:58;6.40;;;2.80;;
59390;SDS011;53405;57.012;40.984;2022-08-01T02:19:47;5.22;;;2.17;;
59390;SDS011;53405;57.012;40.984;2022-08-01T02:22:37;8.88;;;2.72;;
59390;SDS011;53405;57.012;40.984;2022-08-01T02:25:31;5.15;;;2.50;;
59390;SDS011;53405;57.012;40.984;2022-08-01T02:28:29;8.02;;;2.63;;
59390;SDS011;53405;57.012;40.984;2022-08-01T02:31:20;7.13;;;2.60;;
59390;SDS011;53405;57.012;40.984;2022-08-01T02:34:09;7.80;;;2.50;;
59390;SDS011;53405;57.012;40.984;2022-08-01T02:37:01;9.68;;;3.60;;
59390;SDS011;53405;57.012;40.984;2022-08-01T02:39:51;5.82;;;2.78;;
59390;SDS011;53405;57.012;40.984;2022-08-01T02:42:43;10.10;;;2.63;;
59390;SDS011;53405;57.012;40.984;2022-08-01T02:45:35;6.75;;;2.97;;
59390;SDS011;53405;57.012;40.984;2022-08-01T02:48:26;5.93;;;2.75;;
59390;SDS011;53405;57.012;40.984;2022-08-01T02:51:15;9.25;;;3.05;;
59390;SDS011;53405;57.012;40.984;2022-08-01T02:54:04;9.38;;;3.50;;
59390;SDS011;53405;57.012;40.984;2022-08-01T02:56:54;6.30;;;3.25;;
59390;SDS011;53405;57.012;40.984;2022-08-01T03:02:32;6.32;;;3.38;;
59390;SDS011;53405;57.012;40.984;2022-08-01T03:05:22;7.97;;;3.22;;
59390;SDS011;53405;57.012;40.984;2022-08-01T03:08:12;8.60;;;2.90;;
59390;SDS011;53405;57.012;40.984;2022-08-01T03:11:02;7.63;;;3.60;;
59390;SDS011;53405;57.012;40.984;2022-08-01T03:13:52;6.45;;;3.03;;
59390;SDS011;53405;57.012;40.984;2022-08-01T03:16:42;4.95;;;2.90;;
59390;SDS011;53405;57.012;40.984;2022-08-01T03:19:32;5.03;;;2.60;;
59390;SDS011;53405;57.012;40.984;2022-08-01T03:22:22;5.05;;;2.63;;
59390;SDS011;53405;57.012;40.984;2022-08-01T03:25:12;5.45;;;2.65;;
59390;SDS011;53405;57.012;40.984;2022-08-01T03:28:03;8.73;;;3.33;;
59390;SDS011;53405;57.012;40.984;2022-08-01T03:30:52;5.97;;;2.70;;
59390;SDS011;53405;57.012;40.984;2022-08-01T03:33:41;6.47;;;3.15;;
59390;SDS011;53405;57.012;40.984;2022-08-01T03:36:28;8.48;;;3.53;;
59390;SDS011;53405;57.012;40.984;2022-08-01T03:39:19;7.05;;;2.83;;
59390;SDS011;53405;57.012;40.984;2022-08-01T03:42:12;5.50;;;3.40;;
59390;SDS011;53405;57.012;40.984;2022-08-01T03:45:07;8.02;;;3.97;;
59390;SDS011;53405;57.012;40.984;2022-08-01T03:48:01;8.05;;;3.97;;
59390;SDS011;53405;57.012;40.984;2022-08-01T03:50:52;7.95;;;3.30;;
59390;SDS011;53405;57.012;40.984;2022-08-01T03:53:41;5.03;;;2.90;;
59390;SDS011;53405;57.012;40.984;2022-08-01T03:56:29;6.43;;;2.63;;
59390;SDS011;53405;57.012;40.984;2022-08-01T03:59:19;5.85;;;2.67;;
59390;SDS011;53405;57.012;40.984;2022-08-01T04:02:07;4.45;;;2.70;;
59390;SDS011;53405;57.012;40.984;2022-08-01T04:04:56;5.60;;;2.40;;
59390;SDS011;53405;57.012;40.984;2022-08-01T04:07:49;4.25;;;1.95;;
59390;SDS011;53405;57.012;40.984;2022-08-01T04:13:30;4.75;;;2.50;;
59390;SDS011;53405;57.012;40.984;2022-08-01T04:16:19;6.50;;;2.80;;
59390;SDS011;53405;57.012;40.984;2022-08-01T04:19:07;4.32;;;2.45;;
59390;SDS011;53405;57.012;40.984;2022-08-01T04:21:55;4.60;;;2.38;;
59390;SDS011;53405;57.012;40.984;2022-08-01T04:24:44;5.13;;;1.95;;
59390;SDS011;53405;57.012;40.984;2022-08-01T04:27:41;80.60;;;6.80;;
59390;SDS011;53405;57.012;40.984;2022-08-01T04:30:33;13.10;;;2.42;;
59390;SDS011;53405;57.012;40.984;2022-08-01T04:33:22;7.47;;;2.33;;
59390;SDS011;53405;57.012;40.984;2022-08-01T04:36:13;7.28;;;1.80;;
59390;SDS011;53405;57.012;40.984;2022-08-01T04:39:02;5.45;;;1.77;;
59390;SDS011;53405;57.012;40.984;2022-08-01T04:41:52;4.03;;;1.88;;
59390;SDS011;53405;57.012;40.984;2022-08-01T04:44:43;3.90;;;2.10;;
59390;SDS011;53405;57.012;40.984;2022-08-01T04:47:31;5.77;;;1.90;;
59390;SDS011;53405;57.012;40.984;2022-08-01T04:50:19;4.93;;;2.25;;
59390;SDS011;53405;57.012;40.984;2022-08-01T04:53:12;5.10;;;1.67;;
59390;SDS011;53405;57.012;40.984;2022-08-01T04:56:01;3.35;;;1.73;;
59390;SDS011;53405;57.012;40.984;2022-08-01T04:58:49;3.50;;;1.55;;
59390;SDS011;53405;57.012;40.984;2022-08-01T05:01:56;6.28;;;1.80;;
59390;SDS011;53405;57.012;40.984;2022-08-01T05:04:44;2.33;;;1.30;;
59390;SDS011;53405;57.012;40.984;2022-08-01T05:07:32;5.00;;;1.80;;
59390;SDS011;53405;57.012;40.984;2022-08-01T05:10:23;4.93;;;1.80;;
59390;SDS011;53405;57.012;40.984;2022-08-01T05:13:11;4.65;;;1.75;;
59390;SDS011;53405;57.012;40.984;2022-08-01T05:15:58;4.90;;;2.00;;
59390;SDS011;53405;57.012;40.984;2022-08-01T05:18:46;4.25;;;1.92;;
59390;SDS011;53405;57.012;40.984;2022-08-01T05:21:34;3.08;;;1.60;;
59390;SDS011;53405;57.012;40.984;2022-08-01T05:24:22;3.78;;;1.58;;
59390;SDS011;53405;57.012;40.984;2022-08-01T05:27:09;2.47;;;1.60;;
59390;SDS011;53405;57.012;40.984;2022-08-01T05:29:57;5.15;;;1.40;;
59390;SDS011;53405;57.012;40.984;2022-08-01T05:32:44;2.30;;;1.10;;
59390;SDS011;53405;57.012;40.984;2022-08-01T05:35:32;3.00;;;1.40;;
59390;SDS011;53405;57.012;40.984;2022-08-01T05:38:19;2.35;;;1.38;;
59390;SDS011;53405;57.012;40.984;2022-08-01T05:41:07;3.92;;;1.40;;
59390;SDS011;53405;57.012;40.984;2022-08-01T05:43:55;4.68;;;1.83;;
59390;SDS011;53405;57.012;40.984;2022-08-01T05:46:42;10.52;;;1.70;;
59390;SDS011;53405;57.012;40.984;2022-08-01T05:49:30;3.17;;;1.50;;
59390;SDS011;53405;57.012;40.984;2022-08-01T05:52:17;3.88;;;1.60;;
59390;SDS011;53405;57.012;40.984;2022-08-01T05:55:05;5.60;;;1.95;;
59390;SDS011;53405;57.012;40.984;2022-08-01T05:57:53;3.08;;;1.67;;
59390;SDS011;53405;57.012;40.984;2022-08-01T06:00:41;4.18;;;1.30;;
59390;SDS011;53405;57.012;40.984;2022-08-01T06:03:28;2.50;;;1.20;;
59390;SDS011;53405;57.012;40.984;2022-08-01T06:06:18;2.40;;;1.30;;
59390;SDS011;53405;57.012;40.984;2022-08-01T06:09:05;4.20;;;1.55;;
59390;SDS011;53405;57.012;40.984;2022-08-01T06:11:53;2.60;;;1.30;;
59390;SDS011;53405;57.012;40.984;2022-08-01T06:14:41;6.07;;;1.40;;
59390;SDS011;53405;57.012;40.984;2022-08-01T06:17:28;2.65;;;1.15;;
59390;SDS011;53405;57.012;40.984;2022-08-01T06:20:16;2.53;;;1.38;;
59390;SDS011;53405;57.012;40.984;2022-08-01T06:23:04;2.70;;;1.30;;
59390;SDS011;53405;57.012;40.984;2022-08-01T06:25:52;4.45;;;1.30;;
59390;SDS011;53405;57.012;40.984;2022-08-01T06:28:41;3.15;;;1.30;;
59390;SDS011;53405;57.012;40.984;2022-08-01T06:31:28;5.05;;;1.40;;
59390;SDS011;53405;57.012;40.984;2022-08-01T06:34:18;3.67;;;1.63;;
59390;SDS011;53405;57.012;40.984;2022-08-01T06:37:06;2.90;;;1.30;;
59390;SDS011;53405;57.012;40.984;2022-08-01T06:39:54;5.00;;;1.10;;
59390;SDS011;53405;57.012;40.984;2022-08-01T06:42:41;5.82;;;1.20;;
59390;SDS011;53405;57.012;40.984;2022-08-01T06:45:29;2.03;;;1.25;;
59390;SDS011;53405;57.012;40.984;2022-08-01T06:48:16;1.90;;;1.30;;
59390;SDS011;53405;57.012;40.984;2022-08-01T06:51:05;5.95;;;4.10;;
59390;SDS011;53405;57.012;40.984;2022-08-01T06:53:56;3.92;;;1.90;;
59390;SDS011;53405;57.012;40.984;2022-08-01T06:56:44;4.13;;;1.77;;
59390;SDS011;53405;57.012;40.984;2022-08-01T06:59:32;4.30;;;1.77;;
59390;SDS011;53405;57.012;40.984;2022-08-01T07:02:20;6.43;;;1.55;;
59390;SDS011;53405;57.012;40.984;2022-08-01T07:05:07;9.88;;;2.28;;
59390;SDS011;53405;57.012;40.984;2022-08-01T07:07:56;7.07;;;2.83;;
59390;SDS011;53405;57.012;40.984;2022-08-01T07:10:44;5.72;;;2.20;;
59390;SDS011;53405;57.012;40.984;2022-08-01T07:13:31;3.50;;;1.42;;
59390;SDS011;53405;57.012;40.984;2022-08-01T07:16:19;3.83;;;1.40;;
59390;SDS011;53405;57.012;40.984;2022-08-01T07:19:06;2.67;;;1.65;;
59390;SDS011;53405;57.012;40.984;2022-08-01T07:21:54;2.22;;;1.30;;
59390;SDS011;53405;57.012;40.984;2022-08-01T07:24:42;3.85;;;2.60;;
59390;SDS011;53405;57.012;40.984;2022-08-01T07:27:30;4.95;;;1.38;;
59390;SDS011;53405;57.012;40.984;2022-08-01T07:30:17;6.95;;;1.63;;
59390;SDS011;53405;57.012;40.984;2022-08-01T07:33:05;5.18;;;1.70;;
59390;SDS011;53405;57.012;40.984;2022-08-01T07:35:52;4.85;;;1.65;;
59390;SDS011;53405;57.012;40.984;2022-08-01T07:38:43;3.95;;;1.52;;
59390;SDS011;53405;57.012;40.984;2022-08-01T07:41:31;4.03;;;1.65;;
59390;SDS011;53405;57.012;40.984;2022-08-01T07:44:18;4.18;;;1.90;;
59390;SDS011;53405;57.012;40.984;2022-08-01T07:47:06;2.80;;;1.63;;
59390;SDS011;53405;57.012;40.984;2022-08-01T07:50:00;4.00;;;1.80;;
59390;SDS011;53405;57.012;40.984;2022-08-01T07:52:49;3.17;;;1.67;;
59390;SDS011;53405;57.012;40.984;2022-08-01T07:55:37;8.80;;;1.70;;
59390;SDS011;53405;57.012;40.984;2022-08-01T07:58:24;3.72;;;1.65;;
59390;SDS011;53405;57.012;40.984;2022-08-01T08:01:12;4.63;;;1.70;;
59390;SDS011;53405;57.012;40.984;2022-08-01T08:03:59;4.60;;;2.03;;
59390;SDS011;53405;57.012;40.984;2022-08-01T08:06:47;10.23;;;2.38;;
59390;SDS011;53405;57.012;40.984;2022-08-01T08:12:23;3.15;;;1.50;;
59390;SDS011;53405;57.012;40.984;2022-08-01T08:15:11;3.15;;;1.70;;
59390;SDS011;53405;57.012;40.984;2022-08-01T08:17:59;3.17;;;1.50;;
59390;SDS011;53405;57.012;40.984;2022-08-01T08:20:47;2.45;;;1.05;;
59390;SDS011;53405;57.012;40.984;2022-08-01T08:23:34;2.67;;;1.13;;
59390;SDS011;53405;57.012;40.984;2022-08-01T08:26:40;5.30;;;1.60;;
59390;SDS011;53405;57.012;40.984;2022-08-01T08:29:29;3.25;;;1.35;;
59390;SDS011;53405;57.012;40.984;2022-08-01T08:32:19;6.57;;;2.00;;
59390;SDS011;53405;57.012;40.984;2022-08-01T08:35:08;5.18;;;1.40;;
59390;SDS011;53405;57.012;40.984;2022-08-01T08:37:56;3.00;;;1.33;;
59390;SDS011;53405;57.012;40.984;2022-08-01T08:40:43;4.05;;;1.40;;
59390;SDS011;53405;57.012;40.984;2022-08-01T08:43:31;4.28;;;1.48;;
59390;SDS011;53405;57.012;40.984;2022-08-01T08:46:19;4.75;;;1.70;;
59390;SDS011;53405;57.012;40.984;2022-08-01T08:49:08;2.85;;;1.35;;
59390;SDS011;53405;57.012;40.984;2022-08-01T08:51:57;6.25;;;1.45;;
59390;SDS011;53405;57.012;40.984;2022-08-01T08:54:47;3.90;;;1.20;;
59390;SDS011;53405;57.012;40.984;2022-08-01T08:57:36;2.53;;;1.00;;
59390;SDS011;53405;57.012;40.984;2022-08-01T09:00:27;3.10;;;1.05;;
59390;SDS011;53405;57.012;40.984;2022-08-01T09:03:14;1.83;;;0.80;;
59390;SDS011;53405;57.012;40.984;2022-08-01T09:06:02;2.67;;;0.82;;
59390;SDS011;53405;57.012;40.984;2022-08-01T09:08:50;2.37;;;1.20;;
59390;SDS011;53405;57.012;40.984;2022-08-01T09:11:37;3.85;;;0.98;;
59390;SDS011;53405;57.012;40.984;2022-08-01T09:14:26;11.87;;;1.53;;
59390;SDS011;53405;57.012;40.984;2022-08-01T09:17:22;4.50;;;1.00;;
59390;SDS011;53405;57.012;40.984;2022-08-01T09:20:22;10.15;;;6.93;;
59390;SDS011;53405;57.012;40.984;2022-08-01T09:23:30;2.92;;;0.98;;
59390;SDS011;53405;57.012;40.984;2022-08-01T09:26:19;3.05;;;1.30;;
59390;SDS011;53405;57.012;40.984;2022-08-01T09:29:28;3.53;;;1.17;;
59390;SDS011;53405;57.012;40.984;2022-08-01T09:32:19;3.58;;;1.00;;
59390;SDS011;53405;57.012;40.984;2022-08-01T09:38:17;4.97;;;1.40;;
59390;SDS011;53405;57.012;40.984;2022-08-01T09:41:06;4.10;;;0.90;;
59390;SDS011;53405;57.012;40.984;2022-08-01T09:43:54;2.90;;;0.70;;
59390;SDS011;53405;57.012;40.984;2022-08-01T09:49:43;7.03;;;2.95;;
59390;SDS011;53405;57.012;40.984;2022-08-01T09:52:31;3.30;;;0.90;;
59390;SDS011;53405;57.012;40.984;2022-08-01T09:55:20;10.48;;;5.60;;
59390;SDS011;53405;57.012;40.984;2022-08-01T09:58:08;5.60;;;1.25;;
59390;SDS011;53405;57.012;40.984;2022-08-01T10:00:59;6.60;;;1.20;;
59390;SDS011;53405;57.012;40.984;2022-08-01T10:04:03;3.63;;;1.20;;
59390;SDS011;53405;57.012;40.984;2022-08-01T10:07:03;1.98;;;1.10;;
59390;SDS011;53405;57.012;40.984;2022-08-01T10:09:52;2.30;;;1.15;;
59390;SDS011;53405;57.012;40.984;2022-08-01T10:12:40;3.10;;;1.00;;
59390;SDS011;53405;57.012;40.984;2022-08-01T10:15:29;2.83;;;1.10;;
59390;SDS011;53405;57.012;40.984;2022-08-01T10:18:18;2.25;;;1.10;;
59390;SDS011;53405;57.012;40.984;2022-08-01T10:21:07;6.22;;;1.23;;
59390;SDS011;53405;57.012;40.984;2022-08-01T10:23:55;4.90;;;1.25;;
59390;SDS011;53405;57.012;40.984;2022-08-01T10:26:49;3.90;;;1.10;;
59390;SDS011;53405;57.012;40.984;2022-08-01T10:29:43;7.47;;;1.27;;
59390;SDS011;53405;57.012;40.984;2022-08-01T10:32:36;4.15;;;1.48;;
59390;SDS011;53405;57.012;40.984;2022-08-01T10:35:24;6.03;;;1.10;;
59390;SDS011;53405;57.012;40.984;2022-08-01T10:38:12;3.38;;;1.00;;
59390;SDS011;53405;57.012;40.984;2022-08-01T10:41:00;4.95;;;1.10;;
59390;SDS011;53405;57.012;40.984;2022-08-01T10:43:49;3.90;;;1.05;;
59390;SDS011;53405;57.012;40.984;2022-08-01T10:46:39;2.42;;;0.90;;
59390;SDS011;53405;57.012;40.984;2022-08-01T10:49:30;3.55;;;1.00;;
59390;SDS011;53405;57.012;40.984;2022-08-01T10:52:22;5.80;;;1.10;;
59390;SDS011;53405;57.012;40.984;2022-08-01T10:55:10;5.88;;;1.30;;
59390;SDS011;53405;57.012;40.984;2022-08-01T10:57:57;5.20;;;1.23;;
59390;SDS011;53405;57.012;40.984;2022-08-01T11:00:45;5.22;;;1.83;;
59390;SDS011;53405;57.012;40.984;2022-08-01T11:03:34;3.00;;;1.45;;
59390;SDS011;53405;57.012;40.984;2022-08-01T11:06:41;1.55;;;0.90;;
59390;SDS011;53405;57.012;40.984;2022-08-01T11:09:30;1.25;;;0.70;;
59390;SDS011;53405;57.012;40.984;2022-08-01T11:12:37;4.43;;;0.80;;
59390;SDS011;53405;57.012;40.984;2022-08-01T11:15:26;5.03;;;0.80;;
59390;SDS011;53405;57.012;40.984;2022-08-01T11:21:13;4.22;;;1.10;;
59390;SDS011;53405;57.012;40.984;2022-08-01T11:24:00;4.07;;;1.10;;
59390;SDS011;53405;57.012;40.984;2022-08-01T11:32:58;6.60;;;2.17;;
59390;SDS011;53405;57.012;40.984;2022-08-01T11:41:47;3.53;;;1.00;;
59390;SDS011;53405;57.012;40.984;2022-08-01T11:47:43;3.90;;;1.10;;
59390;SDS011;53405;57.012;40.984;2022-08-01T11:50:35;9.65;;;1.20;;
59390;SDS011;53405;57.012;40.984;2022-08-01T11:56:11;16.05;;;1.70;;
59390;SDS011;53405;57.012;40.984;2022-08-01T11:58:59;4.78;;;1.40;;
59390;SDS011;53405;57.012;40.984;2022-08-01T12:01:46;7.95;;;1.42;;
59390;SDS011;53405;57.012;40.984;2022-08-01T12:07:42;5.15;;;1.10;;
59390;SDS011;53405;57.012;40.984;2022-08-01T12:10:33;1.60;;;0.90;;
59390;SDS011;53405;57.012;40.984;2022-08-01T12:13:24;3.67;;;1.13;;
59390;SDS011;53405;57.012;40.984;2022-08-01T12:16:12;2.35;;;0.73;;
59390;SDS011;53405;57.012;40.984;2022-08-01T12:18:59;2.00;;;0.88;;
59390;SDS011;53405;57.012;40.984;2022-08-01T12:24:54;5.25;;;1.00;;
59390;SDS011;53405;57.012;40.984;2022-08-01T12:27:42;4.68;;;1.00;;
59390;SDS011;53405;57.012;40.984;2022-08-01T12:30:31;3.78;;;0.90;;
59390;SDS011;53405;57.012;40.984;2022-08-01T12:33:22;3.05;;;0.88;;
59390;SDS011;53405;57.012;40.984;2022-08-01T12:36:10;3.17;;;0.88;;
59390;SDS011;53405;57.012;40.984;2022-08-01T12:38:58;4.53;;;1.30;;
59390;SDS011;53405;57.012;40.984;2022-08-01T12:41:49;1.35;;;0.73;;
59390;SDS011;53405;57.012;40.984;2022-08-01T12:44:37;2.92;;;1.50;;
59390;SDS011;53405;57.012;40.984;2022-08-01T12:47:26;4.35;;;1.00;;
59390;SDS011;53405;57.012;40.984;2022-08-01T12:50:15;4.27;;;1.00;;
59390;SDS011;53405;57.012;40.984;2022-08-01T12:53:07;2.47;;;0.93;;
59390;SDS011;53405;57.012;40.984;2022-08-01T12:55:55;5.57;;;2.00;;
59390;SDS011;53405;57.012;40.984;2022-08-01T12:58:43;2.67;;;0.75;;
59390;SDS011;53405;57.012;40.984;2022-08-01T13:01:31;1.30;;;0.80;;
59390;SDS011;53405;57.012;40.984;2022-08-01T13:04:19;2.43;;;0.80;;
59390;SDS011;53405;57.012;40.984;2022-08-01T13:09:55;3.75;;;0.93;;
59390;SDS011;53405;57.012;40.984;2022-08-01T13:12:50;4.32;;;1.15;;
59390;SDS011;53405;57.012;40.984;2022-08-01T13:15:40;9.57;;;1.27;;
59390;SDS011;53405;57.012;40.984;2022-08-01T13:18:31;2.72;;;1.02;;
59390;SDS011;53405;57.012;40.984;2022-08-01T13:21:20;4.00;;;1.13;;
59390;SDS011;53405;57.012;40.984;2022-08-01T13:24:12;4.53;;;1.00;;
59390;SDS011;53405;57.012;40.984;2022-08-01T13:27:01;1.40;;;0.80;;
59390;SDS011;53405;57.012;40.984;2022-08-01T13:29:50;2.40;;;0.88;;
59390;SDS011;53405;57.012;40.984;2022-08-01T13:32:40;1.80;;;0.90;;
59390;SDS011;53405;57.012;40.984;2022-08-01T13:35:29;4.20;;;1.00;;
59390;SDS011;53405;57.012;40.984;2022-08-01T13:38:16;8.93;;;1.38;;
59390;SDS011;53405;57.012;40.984;2022-08-01T13:41:04;2.55;;;1.00;;
59390;SDS011;53405;57.012;40.984;2022-08-01T13:43:52;3.47;;;0.90;;
59390;SDS011;53405;57.012;40.984;2022-08-01T13:46:41;7.18;;;1.27;;
59390;SDS011;53405;57.012;40.984;2022-08-01T13:49:29;4.32;;;1.27;;
59390;SDS011;53405;57.012;40.984;2022-08-01T13:52:17;5.10;;;1.13;;
59390;SDS011;53405;57.012;40.984;2022-08-01T13:55:04;4.68;;;1.00;;
59390;SDS011;53405;57.012;40.984;2022-08-01T13:57:52;4.28;;;1.20;;
59390;SDS011;53405;57.012;40.984;2022-08-01T14:00:40;6.10;;;1.27;;
59390;SDS011;53405;57.012;40.984;2022-08-01T14:03:27;3.72;;;0.93;;
59390;SDS011;53405;57.012;40.984;2022-08-01T14:06:15;5.28;;;1.40;;
59390;SDS011;53405;57.012;40.984;2022-08-01T14:09:03;2.67;;;0.87;;
59390;SDS011;53405;57.012;40.984;2022-08-01T14:11:51;4.63;;;1.02;;
59390;SDS011;53405;57.012;40.984;2022-08-01T14:14:41;4.78;;;1.00;;
59390;SDS011;53405;57.012;40.984;2022-08-01T14:17:28;4.50;;;1.08;;
59390;SDS011;53405;57.012;40.984;2022-08-01T14:20:16;5.00;;;1.00;;
59390;SDS011;53405;57.012;40.984;2022-08-01T14:23:06;8.38;;;3.05;;
59390;SDS011;53405;57.012;40.984;2022-08-01T14:28:42;3.78;;;1.35;;
59390;SDS011;53405;57.012;40.984;2022-08-01T14:31:30;3.45;;;1.20;;
59390;SDS011;53405;57.012;40.984;2022-08-01T14:34:19;5.75;;;1.40;;
59390;SDS011;53405;57.012;40.984;2022-08-01T14:37:07;3.87;;;1.40;;
59390;SDS011;53405;57.012;40.984;2022-08-01T14:39:56;11.25;;;1.65;;
59390;SDS011;53405;57.012;40.984;2022-08-01T14:42:44;5.43;;;1.50;;
59390;SDS011;53405;57.012;40.984;2022-08-01T14:45:32;3.50;;;1.40;;
59390;SDS011;53405;57.012;40.984;2022-08-01T14:48:20;2.65;;;1.20;;
59390;SDS011;53405;57.012;40.984;2022-08-01T14:51:08;3.33;;;1.30;;
59390;SDS011;53405;57.012;40.984;2022-08-01T14:53:56;2.72;;;1.15;;
59390;SDS011;53405;57.012;40.984;2022-08-01T14:56:43;5.68;;;1.70;;
59390;SDS011;53405;57.012;40.984;2022-08-01T14:59:31;2.40;;;1.27;;
59390;SDS011;53405;57.012;40.984;2022-08-01T15:02:19;2.53;;;1.30;;
59390;SDS011;53405;57.012;40.984;2022-08-01T15:05:10;6.25;;;1.88;;
59390;SDS011;53405;57.012;40.984;2022-08-01T15:07:58;3.55;;;1.90;;
59390;SDS011;53405;57.012;40.984;2022-08-01T15:10:45;5.50;;;1.70;;
59390;SDS011;53405;57.012;40.984;2022-08-01T15:13:33;5.78;;;2.30;;
59390;SDS011;53405;57.012;40.984;2022-08-01T15:16:22;5.07;;;1.67;;
59390;SDS011;53405;57.012;40.984;2022-08-01T15:19:11;3.78;;;1.67;;
59390;SDS011;53405;57.012;40.984;2022-08-01T15:22:00;8.45;;;1.50;;
59390;SDS011;53405;57.012;40.984;2022-08-01T15:24:47;3.85;;;1.40;;
59390;SDS011;53405;57.012;40.984;2022-08-01T15:27:37;3.65;;;1.50;;
59390;SDS011;53405;57.012;40.984;2022-08-01T15:30:25;3.50;;;1.27;;
59390;SDS011;53405;57.012;40.984;2022-08-01T15:33:13;4.70;;;1.33;;
59390;SDS011;53405;57.012;40.984;2022-08-01T15:36:00;2.00;;;1.23;;
59390;SDS011;53405;57.012;40.984;2022-08-01T15:38:48;5.25;;;1.35;;
59390;SDS011;53405;57.012;40.984;2022-08-01T15:41:35;3.60;;;1.20;;
59390;SDS011;53405;57.012;40.984;2022-08-01T15:44:23;4.65;;;1.48;;
59390;SDS011;53405;57.012;40.984;2022-08-01T15:47:11;3.53;;;1.40;;
59390;SDS011;53405;57.012;40.984;2022-08-01T15:50:00;3.35;;;1.88;;
59390;SDS011;53405;57.012;40.984;2022-08-01T15:52:49;3.83;;;1.85;;
59390;SDS011;53405;57.012;40.984;2022-08-01T15:55:41;5.80;;;1.50;;
59390;SDS011;53405;57.012;40.984;2022-08-01T15:58:28;6.25;;;2.38;;
59390;SDS011;53405;57.012;40.984;2022-08-01T16:01:16;3.58;;;1.80;;
59390;SDS011;53405;57.012;40.984;2022-08-01T16:04:04;3.13;;;1.67;;
59390;SDS011;53405;57.012;40.984;2022-08-01T16:06:52;4.15;;;2.20;;
59390;SDS011;53405;57.012;40.984;2022-08-01T16:09:40;4.07;;;1.70;;
59390;SDS011;53405;57.012;40.984;2022-08-01T16:12:32;4.50;;;1.90;;
59390;SDS011;53405;57.012;40.984;2022-08-01T16:15:20;4.50;;;1.80;;
59390;SDS011;53405;57.012;40.984;2022-08-01T16:18:09;7.18;;;2.03;;
59390;SDS011;53405;57.012;40.984;2022-08-01T16:20:59;5.60;;;2.00;;
59390;SDS011;53405;57.012;40.984;2022-08-01T16:23:47;4.25;;;2.22;;
59390;SDS011;53405;57.012;40.984;2022-08-01T16:26:35;6.18;;;2.30;;
59390;SDS011;53405;57.012;40.984;2022-08-01T16:29:23;4.70;;;2.05;;
59390;SDS011;53405;57.012;40.984;2022-08-01T16:32:12;5.25;;;2.10;;
59390;SDS011;53405;57.012;40.984;2022-08-01T16:34:59;6.82;;;2.63;;
59390;SDS011;53405;57.012;40.984;2022-08-01T16:37:48;5.28;;;2.55;;
59390;SDS011;53405;57.012;40.984;2022-08-01T16:40:36;6.40;;;2.70;;
59390;SDS011;53405;57.012;40.984;2022-08-01T16:43:24;7.72;;;2.92;;
59390;SDS011;53405;57.012;40.984;2022-08-01T16:46:12;6.07;;;2.88;;
59390;SDS011;53405;57.012;40.984;2022-08-01T16:48:59;6.45;;;2.40;;
59390;SDS011;53405;57.012;40.984;2022-08-01T16:51:47;10.70;;;3.95;;
59390;SDS011;53405;57.012;40.984;2022-08-01T16:54:34;9.20;;;3.65;;
59390;SDS011;53405;57.012;40.984;2022-08-01T16:57:22;9.18;;;3.83;;
59390;SDS011;53405;57.012;40.984;2022-08-01T17:00:11;10.77;;;4.13;;
59390;SDS011;53405;57.012;40.984;2022-08-01T17:03:00;8.48;;;4.65;;
59390;SDS011;53405;57.012;40.984;2022-08-01T17:05:48;11.90;;;5.28;;
59390;SDS011;53405;57.012;40.984;2022-08-01T17:08:36;10.80;;;5.07;;
59390;SDS011;53405;57.012;40.984;2022-08-01T17:11:23;12.23;;;5.60;;
59390;SDS011;53405;57.012;40.984;2022-08-01T17:14:11;10.55;;;5.15;;
59390;SDS011;53405;57.012;40.984;2022-08-01T17:16:59;11.65;;;5.70;;
59390;SDS011;53405;57.012;40.984;2022-08-01T17:19:47;11.52;;;5.95;;
59390;SDS011;53405;57.012;40.984;2022-08-01T17:22:35;11.95;;;5.50;;
59390;SDS011;53405;57.012;40.984;2022-08-01T17:25:23;13.13;;;5.32;;
59390;SDS011;53405;57.012;40.984;2022-08-01T17:28:10;15.50;;;5.53;;
59390;SDS011;53405;57.012;40.984;2022-08-01T17:31:00;14.27;;;5.97;;
59390;SDS011;53405;57.012;40.984;2022-08-01T17:33:48;13.40;;;6.15;;
59390;SDS011;53405;57.012;40.984;2022-08-01T17:36:37;13.25;;;6.28;;
59390;SDS011;53405;57.012;40.984;2022-08-01T17:39:25;16.88;;;7.03;;
59390;SDS011;53405;57.012;40.984;2022-08-01T17:42:12;18.73;;;7.10;;